x

Central Dixon Entrance Buoy (46145) Wave Buoy

6:00am - Sun 20th Apr 2014 All times are PDT. -7 hours from GMT.

  • Sig Wave height 4.6ft
  • Peak Period 15s
  • Wind
    22mph, 27mph gusts
  • Sea Temp 44°f
  • Air Temp 45°f
  • Sea Pressure 1007.6mb
  • Central Dixon Entrance Buoy
  • Central Dixon Entrance Buoy

More Historic Weather Station data

Upgrade to MSW Pro to gain access to the past 30 days of data for over 8000 Wavebouys and Weather Stations around the globe.

Join Pro

Comparision Forecast

View Surf forecast
   
Sun 04/20 6:00am 4.5ft 15s 22 27 mph 1007.6mb 44f 45f
5:00am 4ft 17s 20 22 mph 1007.6mb 44f 45f
4:00am 4ft 14s 22 27 mph 1007mb 44f 44f
3:00am 4ft 16s 22 29 mph 1006.3mb 44f 44f
2:00am 4.5ft 16s 20 25 mph 1005.1mb 44f 44f
1:00am 5ft 14s 20 27 mph 1004mb 44f 44f
12:00am 5ft 17s 20 22 mph 1002.3mb 44f 44f
Sat 04/19 11:00pm 5ft 6s 22 25 mph 1000.6mb 44f 45f
10:00pm 6ft 6s 25 29 mph 998.3mb 44f 46f
9:00pm 5.5ft 7s 18 22 mph 996.1mb 44f 46f
8:00pm 7.5ft 7s 22 27 mph 993.6mb 44f 46f
7:00pm 8.5ft 7s 27 34 mph 992mb 44f 46f
6:00pm  -   -  34
mph
- - -
5:00pm 10ft 7s 34 40 mph 991mb 44f 45f
4:00pm 11ft 7s 38 49 mph 990.5mb 44f 46f
3:00pm 10.5ft 7s 38 49 mph 991.1mb 44f 46f
2:00pm 8.5ft 6s 38 49 mph 991.3mb 44f 46f
1:00pm 8ft 6s 34 45 mph 991.9mb 44f 47f
12:00pm 7.5ft 6s 31 40 mph 992.4mb 44f 47f
11:00am 7.5ft 6s 29 36 mph 992.9mb 44f 45f
10:00am 9ft 7s 31 38 mph 993.4mb 44f 44f
9:00am 9.5ft 7s 34 43 mph 993.2mb 44f 44f
8:00am 9ft 6s 36 47 mph 993.4mb 44f 44f
7:00am 10.5ft 7s 38 47 mph 993.5mb 44f 44f
6:00am 10.5ft 6s 38 45 mph 994.3mb 44f 43f
5:00am 9.5ft 6s 38 47 mph 995.5mb 44f 44f
4:00am 8ft 6s 36 47 mph 996.6mb 44f 44f
3:00am 8ft 6s 34 47 mph 997.6mb 44f 44f
2:00am 6.5ft 6s 36 43 mph 998.6mb 44f 44f
12:00am  -   -  31
mph
1000.5mb - 44f
Fri 04/18 11:00pm 7ft 6s 31 36 mph 1002mb 44f 44f
10:00pm 6ft 6s 29 36 mph 1003.1mb 44f 44f
9:00pm 6.5ft 6s 27 34 mph 1004.1mb 44f 45f
8:00pm 6.5ft 5s 27 34 mph 1005mb 44f 45f
7:00pm 6ft 5s 27 31 mph 1005.7mb 44f 45f
6:00pm 6ft 12s 25 31 mph 1006.4mb 44f 45f
5:00pm 6ft 12s 25 29 mph 1007.2mb 44f 45f
4:00pm 6ft 12s 20 25 mph 1008.2mb 44f 45f
3:00pm 6ft 12s 22 27 mph 1009.1mb 44f 45f
2:00pm 6ft 13s 20 27 mph 1010.1mb 44f 45f
1:00pm 7ft 8s 20 25 mph 1010.5mb 44f 45f
12:00pm 7ft 13s 18 22 mph 1010.7mb 44f 45f
11:00am 7.5ft 14s 13 18 mph 1011.1mb 44f 44f
10:00am 7ft 10s 13 18 mph 1011.4mb 44f 43f
9:00am 7ft 10s 11 13 mph 1011.5mb 44f 42f
8:00am 7ft 10s 11 13 mph 1011.5mb 44f 43f
7:00am 7ft 14s 9 11 mph 1011.1mb 44f 42f
6:00am 7ft 14s 9 11 mph 1010.9mb 44f 42f
5:00am 8ft 13s 13 16 mph 1010.4mb 44f 42f
4:00am 7ft 11s 13 18 mph 1009.8mb 44f 42f
3:00am 7ft 10s 11 13 mph 1009.7mb 44f 43f
2:00am 8ft 10s 11 13 mph 1009.3mb 44f 43f
1:00am 9.5ft 10s 11 13 mph 1008.8mb 44f 44f
12:00am 9.5ft 10s 11 13 mph 1008.5mb 44f 43f
Thu 04/17 11:00pm 10ft 9s 11 16 mph 1007.9mb 44f 44f
10:00pm 9ft 11s 18 22 mph 1007.1mb 44f 44f
9:00pm 9ft 11s 13 18 mph 1006.4mb 44f 44f
8:00pm 9.5ft 10s 18 22 mph 1005.4mb 44f 45f
7:00pm 10ft 10s 16 20 mph 1004.8mb 44f 45f
6:00pm 8ft 10s 18 27 mph 1004mb 44f 44f
5:00pm 6ft 10s 18 27 mph 1003.1mb 44f 45f
4:00pm 5.5ft 11s 18 22 mph 1002.4mb 44f 44f
3:00pm 5ft 11s 13 18 mph 1001.6mb 44f 45f
2:00pm 5ft 11s 16 20 mph 1000.6mb 44f 45f
1:00pm 4.5ft 10s 13 18 mph 999.7mb 44f 45f
12:00pm 5ft 10s 16 31 mph 998.5mb 44f 44f
11:00am 4.5ft 10s 16 20 mph 997.5mb 44f 44f
10:00am 4.5ft 11s 18 22 mph 996.4mb 44f 45f
9:00am 5ft 11s 13 16 mph 995.7mb 44f 44f
8:00am 4.5ft 12s 18 22 mph 994.6mb 44f 44f
7:00am 4.5ft 11s 13 16 mph 993.5mb 44f 44f
6:00am 4.5ft 12s 7 9 mph 992.6mb 44f 44f
5:00am 4.5ft 12s 11 13 mph 992.1mb 44f 44f
4:00am 5.5ft 11s 11 13 mph 991.7mb 44f 45f
3:00am 6ft 12s 22 29 mph 991.4mb 44f 44f
2:00am 5ft 12s 27 36 mph 992.4mb 44f 44f
1:00am 5ft 12s 16 18 mph 994.8mb 44f 44f
12:00am 5ft 12s 22 27 mph 995.9mb 44f 45f
Wed 04/16 11:00pm 5ft 12s 25 29 mph 996.6mb 44f 45f
10:00pm 5ft 11s 20 25 mph 997.6mb 44f 46f
9:00pm 5ft 12s 18 22 mph 998mb 44f 45f
8:00pm 5ft 12s 18 22 mph 998.5mb 44f 45f
7:00pm 5.5ft 12s 22 27 mph 999.1mb 44f 45f
6:00pm 5ft 12s 25 29 mph 1000mb 44f 44f
5:00pm 5ft 12s 27 31 mph 1001.1mb 44f 44f
4:00pm 5ft 12s 22 27 mph 1002.2mb 44f 44f
3:00pm 5ft 12s 25 31 mph 1003.4mb 44f 44f